createdAt,value
2022-10-10T00:28:11.206Z,10.27
2022-10-10T00:58:21.437Z,17.67
2022-10-10T01:28:41.059Z,7.13
2022-10-10T01:59:05.869Z,5.37
2022-10-10T02:29:21.525Z,11.23
2022-10-10T02:59:33.655Z,7.87
2022-10-10T03:29:50.861Z,11.13
2022-10-10T04:00:01.324Z,9.10
2022-10-10T04:30:13.096Z,17.10
2022-10-10T05:00:24.648Z,25.10
2022-10-10T05:30:33.281Z,26.73
2022-10-10T06:00:42.452Z,16.40
2022-10-10T06:30:57.346Z,10.47
2022-10-10T07:01:07.882Z,13.23
2022-10-10T07:31:16.557Z,12.32
2022-10-10T08:01:32.695Z,7.07
2022-10-10T08:31:44.330Z,5.22
2022-10-10T09:02:17.562Z,4.32
2022-10-10T09:32:29.719Z,4.10
2022-10-10T10:02:42.808Z,4.15
2022-10-10T10:33:04.426Z,3.65
2022-10-10T11:05:18.050Z,8.45
2022-10-10T11:34:04.322Z,4.88
2022-10-10T12:04:18.324Z,11.48
2022-10-10T12:35:02.541Z,6.10
2022-10-10T13:05:15.528Z,8.45
2022-10-10T13:35:26.684Z,9.98
2022-10-10T14:05:37.081Z,5.90
2022-10-10T14:35:46.678Z,8.18
2022-10-10T15:05:55.788Z,15.82
2022-10-10T15:36:14.781Z,9.10
2022-10-10T16:06:27.808Z,25.90
2022-10-10T16:36:38.618Z,29.30
2022-10-10T17:06:47.174Z,37.50
2022-10-10T17:36:55.657Z,57.87
2022-10-10T18:07:07.853Z,75.93
2022-10-10T18:37:21.840Z,15.13
2022-10-10T19:07:33.323Z,11.80
2022-10-10T19:37:42.457Z,22.77
2022-10-10T20:07:52.875Z,9.90
2022-10-10T20:38:01.321Z,13.73
2022-10-10T21:08:12.085Z,6.53
2022-10-10T21:38:27.311Z,10.53
2022-10-10T22:08:36.262Z,6.97
2022-10-10T22:38:49.816Z,6.90
2022-10-10T23:09:03.810Z,5.63
2022-10-10T23:39:12.170Z,16.27
